Time;durP1;ratioP1;P1;durP2;ratioP2;P2;SDS_P1;SDS_P2;PMS_P1;PMS_P2;Temp;Humidity;BMP_temperature;BMP_pressure;BME280_temperature;BME280_humidity;BME280_pressure;Samples;Min_cycle;Max_cycle;Signal;HPM_P1;HPM_P2
2024/01/23 01:14:46;;;;;;;5.38;2.40;;;6.30;1.00;;;;;;6093846;23;20256;-92
2024/01/23 01:17:18;;;;;;;8.55;2.83;;;6.20;99.90;;;;;;6131619;23;20220;-90
2024/01/23 01:19:45;;;;;;;8.93;2.70;;;5.90;1.00;;;;;;6131648;23;20667;-92
2024/01/23 01:22:12;;;;;;;7.68;2.60;;;5.80;6.80;;;;;;6135870;23;20157;-91
2024/01/23 01:24:40;;;;;;;6.95;2.30;;;5.80;4.30;;;;;;6137685;23;20543;-91
2024/01/23 01:27:07;;;;;;;4.40;2.28;;;6.00;99.90;;;;;;6134686;23;20624;-90
2024/01/23 01:29:35;;;;;;;3.35;2.85;;;5.90;99.90;;;;;;6134141;23;20196;-91
2024/01/23 01:32:03;;;;;;;6.85;2.35;;;5.70;99.90;;;;;;6130820;23;20624;-90
2024/01/23 01:34:41;;;;;;;3.20;2.10;;;5.70;1.00;;;;;;6136114;23;20204;-91
2024/01/23 01:37:08;;;;;;;3.10;2.15;;;5.60;99.90;;;;;;6136678;23;20196;-91
2024/01/23 01:39:35;;;;;;;5.53;2.38;;;5.70;1.00;;;;;;6135689;23;20181;-90
2024/01/23 01:42:02;;;;;;;3.38;2.15;;;5.60;99.90;;;;;;6136903;23;20208;-90
2024/01/23 01:44:32;;;;;;;9.30;3.47;;;5.60;1.00;;;;;;6133562;23;20184;-91
2024/01/23 01:46:59;;;;;;;3.15;2.10;;;5.60;1.00;;;;;;6132900;23;20199;-90
2024/01/23 01:49:28;;;;;;;2.65;2.38;;;5.50;1.00;;;;;;6132934;23;20177;-91
2024/01/23 01:51:59;;;;;;;3.88;2.38;;;5.50;1.00;;;;;;6140900;23;20255;-90
2024/01/23 01:54:30;;;;;;;3.80;1.80;;;5.60;1.00;;;;;;6154294;23;20184;-88
2024/01/23 01:57:00;;;;;;;4.82;1.98;;;5.60;1.00;;;;;;6150391;23;20162;-91
2024/01/23 01:59:29;;;;;;;2.80;2.28;;;5.50;1.00;;;;;;6146910;23;20165;-91
2024/01/23 02:01:57;;;;;;;2.38;1.83;;;6.00;1.00;;;;;;6135651;23;20503;-91
2024/01/23 02:04:24;;;;;;;5.88;2.50;;;5.50;1.00;;;;;;6141579;23;20232;-90
2024/01/23 02:07:00;;;;;;;5.03;2.00;;;5.40;1.00;;;;;;6142206;23;20181;-91
2024/01/23 02:09:34;;;;;;;7.15;2.08;;;5.40;1.00;;;;;;6149568;23;20166;-89
2024/01/23 02:12:09;;;;;;;6.22;2.00;;;5.50;1.00;;;;;;6154614;23;20146;-89
2024/01/23 02:14:45;;;;;;;4.47;2.00;;;5.50;1.00;;;;;;6156829;23;20185;-88
2024/01/23 02:17:16;;;;;;;3.08;2.20;;;5.40;1.00;;;;;;6184778;23;20155;-92
2024/01/23 02:19:50;;;;;;;5.15;2.28;;;5.40;1.00;;;;;;6204226;22;20238;-91
2024/01/23 02:22:21;;;;;;;5.57;2.17;;;5.40;1.00;;;;;;6237080;23;20177;-90
2024/01/23 02:24:54;;;;;;;5.07;2.42;;;5.30;1.00;;;;;;6222625;23;20195;-91
2024/01/23 02:27:23;;;;;;;5.10;2.67;;;5.30;1.00;;;;;;6222223;23;20175;-91
2024/01/23 02:29:52;;;;;;;5.50;2.63;;;5.30;1.00;;;;;;6222130;23;20171;-91
2024/01/23 04:31:26;;;;;;;5.55;1.75;;;5.40;99.90;;;;;;6063510;23;20667;-86
2024/01/23 04:33:53;;;;;;;5.25;1.98;;;5.60;99.90;;;;;;6130826;23;20225;-86
2024/01/23 04:36:20;;;;;;;4.90;2.13;;;5.40;25.60;;;;;;6130306;23;20208;-86
2024/01/23 04:38:47;;;;;;;3.20;2.60;;;5.50;1.00;;;;;;6130918;23;20259;-86
2024/01/23 04:41:14;;;;;;;9.15;2.03;;;5.50;1.00;;;;;;6129120;23;20598;-86
2024/01/23 04:43:40;;;;;;;5.75;1.98;;;5.50;99.90;;;;;;6130024;23;20258;-85
2024/01/23 05:58:38;;;;;;;4.07;2.45;;;5.00;99.90;;;;;;6127856;23;20204;-90
2024/01/23 06:01:05;;;;;;;5.55;2.53;;;4.90;99.90;;;;;;6156083;23;20153;-90
2024/01/23 06:03:35;;;;;;;4.93;2.25;;;4.90;99.90;;;;;;6156029;23;20161;-90
2024/01/23 06:06:02;;;;;;;5.85;2.00;;;5.00;99.90;;;;;;6154474;23;20185;-90
2024/01/23 06:08:29;;;;;;;2.17;1.58;;;5.20;99.90;;;;;;6152804;23;20197;-91
2024/01/23 06:11:04;;;;;;;13.63;3.95;;;4.90;99.90;;;;;;6142768;23;20260;-90
2024/01/23 06:13:31;;;;;;;4.65;2.63;;;5.00;99.90;;;;;;6147725;23;20209;-86
2024/01/23 06:15:59;;;;;;;3.42;1.83;;;4.90;99.90;;;;;;6154529;23;20161;-87
2024/01/23 06:18:26;;;;;;;2.85;2.25;;;5.00;99.90;;;;;;6152457;23;20175;-86
2024/01/23 06:20:53;;;;;;;7.53;2.13;;;5.10;99.90;;;;;;6151045;23;20181;-86
2024/01/23 06:23:20;;;;;;;7.03;2.30;;;5.10;91.20;;;;;;6150907;23;20197;-88
2024/01/23 06:25:47;;;;;;;8.13;3.40;;;5.20;41.70;;;;;;6142089;23;20208;-86
2024/01/23 06:28:14;;;;;;;6.88;2.33;;;5.30;18.80;;;;;;6151727;23;20181;-83
2024/01/23 06:30:41;;;;;;;3.80;2.30;;;5.20;68.30;;;;;;6144301;23;20177;-81
2024/01/23 06:33:09;;;;;;;7.40;3.53;;;5.20;99.90;;;;;;6133883;23;20280;-82
2024/01/23 06:35:36;;;;;;;6.30;2.50;;;5.20;99.90;;;;;;6134803;23;20188;-83
2024/01/23 06:38:03;;;;;;;5.78;2.70;;;5.20;99.90;;;;;;6135980;23;20255;-83
2024/01/23 06:40:29;;;;;;;4.60;2.80;;;5.20;99.90;;;;;;6136829;23;20192;-83
2024/01/23 06:42:56;;;;;;;4.18;2.42;;;5.20;99.90;;;;;;6136082;23;20201;-84
2024/01/23 06:45:23;;;;;;;12.40;6.55;;;5.20;99.90;;;;;;6137982;23;20196;-84
2024/01/23 06:47:50;;;;;;;8.30;3.47;;;5.20;99.90;;;;;;6147807;23;20181;-83
2024/01/23 06:50:18;;;;;;;5.53;2.90;;;5.20;99.90;;;;;;6136636;23;20188;-83
2024/01/23 06:52:45;;;;;;;9.00;3.70;;;5.20;1.00;;;;;;6138841;23;20698;-84
2024/01/23 06:55:12;;;;;;;12.38;3.83;;;5.30;99.90;;;;;;6140077;23;20252;-84
2024/01/23 06:57:39;;;;;;;6.78;2.83;;;5.30;99.90;;;;;;6151627;23;20189;-84
2024/01/23 07:00:08;;;;;;;4.53;2.50;;;5.30;99.90;;;;;;6147117;23;20181;-85
2024/01/23 07:02:35;;;;;;;3.53;2.40;;;5.30;99.90;;;;;;6148741;23;20249;-84
2024/01/23 07:05:01;;;;;;;14.25;4.05;;;5.30;99.90;;;;;;6149911;23;20177;-84
2024/01/23 07:07:30;;;;;;;5.63;3.40;;;5.30;99.90;;;;;;6148240;23;20181;-84
2024/01/23 07:09:56;;;;;;;9.82;3.92;;;5.30;99.90;;;;;;6143291;23;20181;-83
2024/01/23 07:12:23;;;;;;;12.20;4.97;;;5.30;99.90;;;;;;6149442;23;20215;-84
2024/01/23 07:14:50;;;;;;;9.05;3.40;;;5.40;84.70;;;;;;6176150;23;20195;-83
2024/01/23 07:17:17;;;;;;;8.40;2.80;;;5.40;99.90;;;;;;6169412;23;20180;-83
2024/01/23 07:19:45;;;;;;;4.30;2.17;;;5.50;20.90;;;;;;6165467;23;20180;-83
2024/01/23 07:22:11;;;;;;;5.75;2.80;;;5.50;1.00;;;;;;6168970;23;20200;-84
2024/01/23 07:24:40;;;;;;;14.65;4.13;;;5.60;99.90;;;;;;6173579;23;20203;-83
2024/01/23 07:27:07;;;;;;;10.18;3.10;;;5.70;99.90;;;;;;6175451;23;20182;-84
2024/01/23 07:29:35;;;;;;;9.82;4.53;;;5.70;1.00;;;;;;6180937;23;20180;-84
2024/01/23 07:32:02;;;;;;;6.50;3.35;;;5.80;1.00;;;;;;6182551;23;20200;-84
2024/01/23 07:34:29;;;;;;;11.00;3.13;;;5.80;99.90;;;;;;6178222;23;20196;-83
2024/01/23 07:36:56;;;;;;;8.20;3.38;;;5.80;99.90;;;;;;6171241;23;20181;-84
2024/01/23 07:39:23;;;;;;;5.15;2.58;;;5.90;99.90;;;;;;6169393;23;20181;-84
2024/01/23 07:41:51;;;;;;;7.35;2.65;;;5.90;1.00;;;;;;6169315;23;20184;-85
2024/01/23 07:44:18;;;;;;;13.15;3.72;;;5.90;1.00;;;;;;6169361;23;20183;-84
2024/01/23 07:46:47;;;;;;;8.38;3.45;;;6.00;1.00;;;;;;6168622;23;20191;-84
2024/01/23 07:49:14;;;;;;;9.25;4.00;;;6.00;99.90;;;;;;6169198;23;20177;-84
2024/01/23 07:51:47;;;;;;;9.18;3.00;;;6.00;99.90;;;;;;6168899;23;20256;-84
2024/01/23 07:54:14;;;;;;;11.23;4.43;;;6.00;99.90;;;;;;6169221;23;20196;-83
2024/01/23 07:56:41;;;;;;;14.80;4.50;;;6.00;99.90;;;;;;6167962;23;20188;-84
2024/01/23 07:59:10;;;;;;;7.72;3.90;;;6.10;99.90;;;;;;6168716;23;20180;-83
2024/01/23 08:01:37;;;;;;;10.10;3.35;;;6.00;99.90;;;;;;6169739;23;20208;-84
2024/01/23 08:04:04;;;;;;;12.07;4.22;;;6.00;99.90;;;;;;6168758;23;20196;-83
2024/01/23 08:06:31;;;;;;;8.85;3.47;;;6.10;99.90;;;;;;6179308;23;20180;-83
2024/01/23 08:08:58;;;;;;;12.68;3.78;;;6.10;18.00;;;;;;6180189;23;20161;-83
2024/01/23 08:11:25;;;;;;;7.63;4.25;;;6.10;52.50;;;;;;6172860;23;20491;-83
2024/01/23 08:13:52;;;;;;;9.20;3.50;;;6.10;29.40;;;;;;6160804;23;20200;-83
2024/01/23 08:16:20;;;;;;;8.85;3.15;;;6.10;1.00;;;;;;6165888;23;20181;-85
2024/01/23 08:18:47;;;;;;;4.10;2.83;;;6.10;14.40;;;;;;6170210;23;20200;-84
2024/01/23 08:21:14;;;;;;;10.43;2.92;;;6.10;30.00;;;;;;6166346;23;20187;-84
2024/01/23 08:23:41;;;;;;;8.80;2.85;;;6.10;58.30;;;;;;6165817;23;20230;-84
2024/01/23 08:26:07;;;;;;;9.32;3.45;;;6.20;1.00;;;;;;6164043;23;20252;-84
2024/01/23 08:28:34;;;;;;;11.93;4.18;;;6.30;18.50;;;;;;6167362;23;20244;-84
2024/01/23 08:31:03;;;;;;;9.95;4.47;;;6.30;1.00;;;;;;6169505;23;20580;-83
2024/01/23 08:33:33;;;;;;;10.13;2.72;;;6.30;1.00;;;;;;6176211;23;20234;-83
2024/01/23 08:36:00;;;;;;;12.20;3.50;;;6.30;1.00;;;;;;6179226;23;20180;-83
2024/01/23 08:38:27;;;;;;;11.25;3.20;;;6.40;1.00;;;;;;6174426;23;20671;-84
2024/01/23 08:40:54;;;;;;;12.68;3.28;;;6.50;1.00;;;;;;6167705;23;20181;-84
2024/01/23 08:43:20;;;;;;;7.25;3.53;;;6.50;1.00;;;;;;6164433;23;20220;-84
2024/01/23 08:45:48;;;;;;;14.07;3.17;;;6.40;1.00;;;;;;6170192;23;20188;-83
2024/01/23 08:48:19;;;;;;;9.30;3.00;;;6.50;99.90;;;;;;6176932;23;20231;-83
2024/01/23 08:50:47;;;;;;;10.20;3.03;;;6.50;99.90;;;;;;6181840;23;20153;-84
2024/01/23 08:53:14;;;;;;;9.13;3.25;;;6.50;99.90;;;;;;6181732;23;20256;-83
2024/01/23 08:55:41;;;;;;;7.53;2.95;;;6.50;99.90;;;;;;6179533;23;20196;-84
2024/01/23 08:58:08;;;;;;;9.18;2.92;;;6.50;99.90;;;;;;6178691;23;20187;-83
2024/01/23 09:00:35;;;;;;;9.45;3.35;;;6.50;99.90;;;;;;6177232;23;20164;-84
2024/01/23 09:03:02;;;;;;;5.40;2.38;;;6.60;99.90;;;;;;6176962;23;20255;-84
2024/01/23 09:05:30;;;;;;;4.60;2.58;;;6.60;99.90;;;;;;6177254;23;20232;-84
2024/01/23 09:07:58;;;;;;;12.13;2.85;;;6.70;99.90;;;;;;6170790;23;20187;-84
2024/01/23 09:10:25;;;;;;;8.95;3.00;;;6.60;99.90;;;;;;6170544;23;20518;-84
2024/01/23 09:12:52;;;;;;;7.20;3.20;;;6.70;99.90;;;;;;6170806;23;20206;-85
2024/01/23 09:15:19;;;;;;;6.90;3.20;;;6.70;99.90;;;;;;6169754;23;20444;-85
2024/01/23 09:17:45;;;;;;;13.88;3.63;;;6.70;99.90;;;;;;6168844;23;20251;-85
2024/01/23 09:20:13;;;;;;;11.38;2.75;;;6.80;99.90;;;;;;6175418;23;20180;-85
2024/01/23 09:22:41;;;;;;;9.48;3.72;;;6.80;99.90;;;;;;6178637;23;20211;-83
2024/01/23 09:25:10;;;;;;;9.10;3.70;;;6.80;99.90;;;;;;6177528;23;20171;-84
2024/01/23 09:27:36;;;;;;;12.88;3.95;;;6.80;99.90;;;;;;6177846;23;20180;-84
2024/01/23 09:30:04;;;;;;;9.10;3.43;;;6.90;99.90;;;;;;6173635;23;20229;-84
2024/01/23 09:32:31;;;;;;;11.88;3.67;;;6.90;99.90;;;;;;6173607;23;20435;-84
2024/01/23 09:34:58;;;;;;;7.20;2.93;;;6.90;99.90;;;;;;6181082;23;20184;-83
2024/01/23 09:37:24;;;;;;;7.35;3.28;;;6.90;99.90;;;;;;6181802;23;20392;-84
2024/01/23 09:39:52;;;;;;;6.35;3.38;;;6.90;98.70;;;;;;6181612;23;20236;-83
2024/01/23 09:42:23;;;;;;;5.78;2.30;;;7.00;99.90;;;;;;6182005;23;20188;-85
2024/01/23 09:44:52;;;;;;;12.73;3.80;;;7.00;75.10;;;;;;6183110;23;20161;-84
2024/01/23 09:47:21;;;;;;;12.75;4.43;;;7.10;60.00;;;;;;6181122;23;20187;-84
2024/01/23 09:49:49;;;;;;;10.83;2.80;;;7.00;99.90;;;;;;6180006;23;20215;-83
2024/01/23 09:52:18;;;;;;;9.95;3.85;;;7.10;87.80;;;;;;6179724;23;20427;-84
2024/01/23 09:54:45;;;;;;;10.15;4.65;;;7.10;98.10;;;;;;6173219;23;20192;-85
2024/01/23 09:57:14;;;;;;;12.10;3.75;;;7.10;94.80;;;;;;6171406;23;20495;-84
2024/01/23 09:59:44;;;;;;;7.40;3.08;;;7.10;99.90;;;;;;6168861;23;20184;-84
2024/01/23 10:02:11;;;;;;;12.95;3.58;;;7.10;60.30;;;;;;6172887;23;20188;-83
2024/01/23 10:04:38;;;;;;;9.32;4.20;;;7.10;83.30;;;;;;6178502;23;20160;-84
2024/01/23 10:07:08;;;;;;;12.70;5.18;;;7.10;99.90;;;;;;6178402;23;20187;-83
2024/01/23 10:09:35;;;;;;;8.10;3.13;;;7.10;86.60;;;;;;6180390;23;20188;-84
2024/01/23 10:12:02;;;;;;;14.05;4.30;;;7.20;52.80;;;;;;6179689;23;20411;-83
2024/01/23 10:14:29;;;;;;;12.23;4.00;;;7.20;27.30;;;;;;6180353;23;20211;-84
2024/01/23 10:16:57;;;;;;;12.03;3.70;;;7.20;28.80;;;;;;6181251;23;20367;-83
2024/01/23 10:19:24;;;;;;;8.95;2.95;;;7.30;24.30;;;;;;6181873;23;20404;-83
2024/01/23 10:21:54;;;;;;;7.20;3.20;;;7.20;31.80;;;;;;6181788;23;20191;-84
2024/01/23 10:24:21;;;;;;;9.45;4.53;;;7.30;23.10;;;;;;6181945;23;20192;-83
2024/01/23 10:26:48;;;;;;;18.77;4.90;;;7.40;7.30;;;;;;6180426;23;20216;-83
2024/01/23 10:29:15;;;;;;;17.53;6.83;;;7.40;3.00;;;;;;6182251;23;20168;-83
2024/01/23 10:31:42;;;;;;;12.57;4.30;;;7.50;7.70;;;;;;6176282;23;20398;-83
2024/01/23 10:34:12;;;;;;;14.27;8.83;;;7.60;1.00;;;;;;6170212;23;20445;-84
2024/01/23 10:36:40;;;;;;;7.85;4.80;;;7.50;1.00;;;;;;6181012;23;20414;-85
2024/01/23 10:39:10;;;;;;;10.97;3.70;;;7.60;1.00;;;;;;6185776;23;20157;-83
2024/01/23 10:41:38;;;;;;;12.43;4.20;;;7.60;1.00;;;;;;6185497;23;20351;-84
2024/01/23 10:44:06;;;;;;;17.00;3.87;;;7.50;1.00;;;;;;6177567;23;20192;-84
2024/01/23 10:46:35;;;;;;;7.43;3.80;;;7.60;1.00;;;;;;6171162;23;20410;-83
2024/01/23 10:49:02;;;;;;;19.87;3.20;;;7.50;1.00;;;;;;6176035;23;20379;-83
2024/01/23 10:51:32;;;;;;;14.83;3.10;;;7.60;6.00;;;;;;6174817;23;20389;-84
2024/01/23 10:54:06;;;;;;;13.07;4.03;;;7.60;12.60;;;;;;6170454;23;20436;-84
2024/01/23 10:56:41;;;;;;;11.90;3.13;;;7.60;14.70;;;;;;6170810;23;20459;-83
2024/01/23 10:59:16;;;;;;;14.82;4.00;;;7.60;27.00;;;;;;6169571;23;20875;-84
2024/01/23 11:01:45;;;;;;;8.40;3.47;;;7.60;9.80;;;;;;6169123;23;20188;-84
2024/01/23 11:04:12;;;;;;;8.83;3.23;;;7.60;2.00;;;;;;6169658;23;20400;-85
2024/01/23 11:06:50;;;;;;;13.00;3.90;;;7.80;48.80;;;;;;6170800;23;20436;-83
2024/01/23 11:09:23;;;;;;;12.07;2.97;;;7.80;19.30;;;;;;6180142;23;20367;-83
2024/01/23 11:11:59;;;;;;;9.23;3.03;;;7.90;16.10;;;;;;6179269;23;20393;-84
2024/01/23 11:14:29;;;;;;;7.17;3.20;;;7.80;1.00;;;;;;6179966;23;20388;-83
2024/01/23 11:17:03;;;;;;;8.50;3.27;;;7.80;1.00;;;;;;6179388;23;20380;-83
2024/01/23 11:19:29;;;;;;;9.13;3.33;;;7.70;1.00;;;;;;6178485;23;20385;-83
2024/01/23 11:22:02;;;;;;;13.60;3.37;;;7.70;1.00;;;;;;6177068;23;20442;-84
2024/01/23 11:24:43;;;;;;;14.27;4.60;;;7.80;4.00;;;;;;6177187;23;20373;-83
2024/01/23 11:27:18;;;;;;;6.73;2.73;;;7.80;1.00;;;;;;6171304;23;20400;-85
2024/01/23 11:29:46;;;;;;;7.73;3.33;;;7.90;1.00;;;;;;6172888;23;20391;-84
2024/01/23 11:32:23;;;;;;;11.40;3.80;;;8.00;71.30;;;;;;6170221;23;20458;-84
2024/01/23 11:34:59;;;;;;;10.80;5.00;;;8.00;1.00;;;;;;6174998;23;20452;-84
2024/01/23 11:37:47;;;;;;;10.32;3.20;;;8.10;1.00;;;;;;6179548;23;20370;-83
2024/01/23 11:40:37;;;;;;;12.27;3.43;;;8.10;1.00;;;;;;6178761;23;20216;-83
2024/01/23 11:43:07;;;;;;;14.57;4.20;;;8.00;1.00;;;;;;6174458;23;20485;-84
2024/01/23 11:45:37;;;;;;;11.47;3.50;;;8.10;59.10;;;;;;6171034;23;20705;-85
2024/01/23 11:48:05;;;;;;;11.23;3.43;;;8.10;1.00;;;;;;6170871;23;20377;-84
2024/01/23 11:50:34;;;;;;;17.77;3.60;;;8.10;1.00;;;;;;6171410;23;20449;-85
2024/01/23 11:53:02;;;;;;;9.83;3.40;;;8.20;7.20;;;;;;6169922;23;20797;-84
2024/01/23 11:55:29;;;;;;;7.30;2.70;;;8.30;1.00;;;;;;6171156;23;20457;-85
2024/01/23 11:57:58;;;;;;;15.27;3.57;;;8.30;1.00;;;;;;6171701;23;20379;-84
2024/01/23 12:00:26;;;;;;;10.07;3.30;;;8.40;1.00;;;;;;6174799;23;20411;-84
2024/01/23 12:02:54;;;;;;;14.33;3.40;;;8.30;1.00;;;;;;6170218;23;20466;-83
2024/01/23 12:05:21;;;;;;;6.53;3.00;;;8.30;1.00;;;;;;6171327;23;20455;-85
2024/01/23 12:07:49;;;;;;;10.30;3.30;;;8.20;1.00;;;;;;6170278;23;20383;-84
2024/01/23 12:10:20;;;;;;;13.57;2.90;;;8.20;1.00;;;;;;6170281;23;20450;-84
2024/01/23 14:14:30;;;;;;;13.63;4.57;;;8.10;1.00;;;;;;6136177;23;20895;-84
2024/01/23 14:16:57;;;;;;;8.70;4.00;;;8.10;1.00;;;;;;6142063;23;20834;-84
2024/01/23 14:19:24;;;;;;;15.70;4.53;;;8.20;1.00;;;;;;6150293;23;20445;-83
2024/01/23 14:21:51;;;;;;;16.60;4.10;;;8.20;1.00;;;;;;6154397;23;20411;-83
2024/01/23 14:24:18;;;;;;;15.23;4.20;;;8.20;1.00;;;;;;6145687;23;20411;-85
2024/01/23 15:26:20;;;;;;;25.07;6.07;;;7.70;1.00;;;;;;6102844;23;20427;-85
2024/01/23 15:28:47;;;;;;;18.85;3.85;;;7.70;1.00;;;;;;6140627;23;20462;-84
2024/01/23 15:31:13;;;;;;;16.13;4.03;;;7.70;1.00;;;;;;6139614;23;20189;-86
2024/01/23 15:33:40;;;;;;;16.40;5.27;;;7.60;1.00;;;;;;6139942;23;20648;-86
2024/01/23 15:36:08;;;;;;;15.38;4.03;;;7.60;1.00;;;;;;6139202;23;20507;-85
2024/01/23 18:26:54;;;;;;;20.50;8.18;;;6.30;1.00;;;;;;6125270;23;20208;-87
2024/01/23 18:29:21;;;;;;;20.85;9.90;;;6.20;1.00;;;;;;6136533;23;20204;-86
2024/01/23 18:31:50;;;;;;;25.02;10.02;;;6.10;1.80;;;;;;6139081;23;20181;-86
2024/01/23 18:34:17;;;;;;;25.73;9.50;;;6.00;24.30;;;;;;6139096;23;20252;-86
2024/01/23 18:36:44;;;;;;;25.70;10.85;;;6.00;39.40;;;;;;6140208;23;20256;-86
2024/01/23 18:39:11;;;;;;;17.02;8.80;;;5.90;89.50;;;;;;6145997;23;20181;-86
2024/01/23 18:41:39;;;;;;;26.75;13.63;;;5.90;99.90;;;;;;6138249;23;20180;-85
2024/01/23 18:44:07;;;;;;;23.92;10.45;;;5.80;99.90;;;;;;6136492;23;20185;-86
2024/01/23 18:46:34;;;;;;;21.20;9.48;;;5.80;99.90;;;;;;6137151;23;20200;-85
2024/01/23 18:49:03;;;;;;;19.63;9.75;;;5.70;99.90;;;;;;6138299;23;20173;-86
2024/01/23 18:51:30;;;;;;;10.55;6.88;;;5.70;99.90;;;;;;6136798;23;20174;-86
2024/01/23 18:53:57;;;;;;;22.35;9.55;;;5.60;99.90;;;;;;6135007;23;20196;-85
2024/01/23 18:56:24;;;;;;;17.50;7.20;;;5.60;99.90;;;;;;6135018;23;20543;-86
2024/01/23 18:58:51;;;;;;;18.60;8.27;;;5.50;99.90;;;;;;6134617;23;20188;-87
2024/01/23 19:01:19;;;;;;;13.45;6.43;;;5.50;99.90;;;;;;6134339;23;20181;-85
2024/01/23 19:03:47;;;;;;;16.08;6.75;;;5.50;99.90;;;;;;6135350;23;20243;-86
2024/01/23 19:06:15;;;;;;;16.15;6.85;;;5.40;99.90;;;;;;6134459;23;20207;-85
2024/01/23 19:08:44;;;;;;;16.77;8.30;;;5.30;99.90;;;;;;6136475;23;20177;-85
2024/01/23 19:11:11;;;;;;;16.50;6.90;;;5.30;99.90;;;;;;6142031;23;20181;-85
2024/01/23 19:13:39;;;;;;;26.85;7.78;;;5.20;99.90;;;;;;6139854;23;20188;-87
2024/01/23 19:16:07;;;;;;;19.70;7.40;;;5.20;99.90;;;;;;6137538;23;20205;-86
2024/01/23 19:18:37;;;;;;;21.33;7.38;;;5.20;99.90;;;;;;6139996;23;20187;-86
2024/01/23 19:21:05;;;;;;;12.38;5.70;;;5.10;99.90;;;;;;6140973;23;20165;-84
2024/01/23 19:23:32;;;;;;;9.52;5.78;;;5.10;99.90;;;;;;6148362;23;20181;-83
2024/01/23 19:25:58;;;;;;;23.42;7.78;;;5.10;99.90;;;;;;6160866;23;20204;-84
2024/01/23 19:28:27;;;;;;;14.38;6.55;;;5.10;99.90;;;;;;6176945;23;20180;-86
2024/01/23 19:30:54;;;;;;;12.45;6.03;;;5.10;99.90;;;;;;6177244;23;20181;-82
2024/01/23 19:33:21;;;;;;;15.35;7.65;;;5.00;99.90;;;;;;6173598;23;20180;-84
2024/01/23 19:35:49;;;;;;;14.57;8.65;;;5.00;99.90;;;;;;6172057;23;20577;-84
2024/01/23 19:38:17;;;;;;;14.40;6.28;;;4.90;99.90;;;;;;6173484;23;20171;-84
2024/01/23 19:40:44;;;;;;;17.70;7.10;;;4.90;99.90;;;;;;6174393;23;20172;-84
2024/01/23 19:43:11;;;;;;;16.58;7.20;;;4.80;1.00;;;;;;6167698;23;20188;-84
2024/01/23 19:45:39;;;;;;;13.40;7.95;;;4.80;1.00;;;;;;6168918;23;20633;-84
2024/01/23 19:48:06;;;;;;;12.95;6.95;;;4.70;1.00;;;;;;6168637;23;20180;-85
2024/01/23 19:50:33;;;;;;;13.30;7.22;;;4.70;1.00;;;;;;6168821;23;20239;-85
2024/01/23 19:53:01;;;;;;;18.92;7.18;;;4.70;1.00;;;;;;6171019;23;20180;-84
2024/01/23 19:55:28;;;;;;;12.88;7.55;;;4.70;1.00;;;;;;6179239;23;20193;-86
2024/01/23 19:57:54;;;;;;;17.05;8.55;;;4.70;1.00;;;;;;6180263;23;20180;-85
2024/01/23 20:00:21;;;;;;;13.63;9.27;;;4.60;1.00;;;;;;6176479;23;20177;-85
2024/01/23 20:02:48;;;;;;;12.93;7.88;;;4.60;50.80;;;;;;6175436;23;20180;-87
2024/01/23 20:05:15;;;;;;;15.02;7.70;;;4.60;1.00;;;;;;6171184;23;20279;-85
2024/01/23 20:07:42;;;;;;;22.02;7.72;;;4.50;55.30;;;;;;6173281;23;20176;-85
2024/01/23 20:10:11;;;;;;;15.80;6.53;;;4.60;99.90;;;;;;6173707;23;20208;-85
2024/01/23 20:12:38;;;;;;;16.13;8.07;;;4.50;99.60;;;;;;6170441;23;20239;-87
2024/01/23 20:15:06;;;;;;;13.55;6.90;;;4.60;99.90;;;;;;6172628;23;20204;-87
2024/01/23 20:17:33;;;;;;;12.25;7.15;;;4.60;99.90;;;;;;6172123;23;20188;-86
2024/01/23 20:20:00;;;;;;;12.55;7.90;;;4.50;99.90;;;;;;6167341;23;20181;-86
2024/01/23 20:22:27;;;;;;;13.35;6.85;;;4.60;99.90;;;;;;6167128;23;20270;-87
2024/01/23 20:24:54;;;;;;;13.65;6.43;;;4.60;99.90;;;;;;6167642;23;20234;-87
2024/01/23 20:27:22;;;;;;;15.85;6.70;;;4.60;99.90;;;;;;6167313;23;20204;-86
2024/01/23 20:29:49;;;;;;;10.10;5.43;;;4.60;99.90;;;;;;6168197;23;20180;-85
2024/01/23 20:32:16;;;;;;;12.95;6.55;;;4.60;46.50;;;;;;6166601;23;20247;-85
2024/01/23 20:34:43;;;;;;;11.45;4.72;;;4.70;40.50;;;;;;6179570;23;20171;-86
2024/01/23 20:37:09;;;;;;;16.85;6.00;;;4.70;1.00;;;;;;6180266;23;20200;-85
2024/01/23 20:39:37;;;;;;;11.45;5.18;;;4.70;1.00;;;;;;6169780;23;20180;-84
2024/01/23 20:42:11;;;;;;;8.32;4.97;;;4.60;1.00;;;;;;6168866;23;20180;-85
2024/01/23 20:44:39;;;;;;;14.88;6.47;;;4.60;1.00;;;;;;6166451;23;20561;-85
2024/01/23 20:47:07;;;;;;;8.88;6.03;;;4.70;1.00;;;;;;6165786;23;20200;-86
2024/01/23 20:49:34;;;;;;;15.00;5.50;;;4.70;1.00;;;;;;6174563;23;20184;-87
2024/01/23 20:52:02;;;;;;;11.77;5.07;;;4.80;1.00;;;;;;6171368;23;20200;-85
2024/01/23 20:54:29;;;;;;;9.13;4.90;;;4.80;1.00;;;;;;6166924;23;20177;-85
2024/01/23 20:56:56;;;;;;;16.10;6.45;;;4.80;1.00;;;;;;6169531;23;20192;-87
2024/01/23 20:59:22;;;;;;;9.40;4.80;;;4.80;1.00;;;;;;6176122;23;20165;-84
2024/01/23 21:01:51;;;;;;;9.05;4.50;;;4.80;1.00;;;;;;6174062;23;20180;-84
2024/01/23 21:04:18;;;;;;;18.67;5.18;;;4.80;1.00;;;;;;6175417;23;20655;-85
2024/01/23 21:06:45;;;;;;;7.25;4.35;;;4.80;1.00;;;;;;6172979;23;20193;-84
2024/01/23 21:09:13;;;;;;;12.95;5.47;;;4.80;1.00;;;;;;6173516;23;20180;-85
2024/01/23 21:11:45;;;;;;;14.07;5.63;;;4.80;1.00;;;;;;6171769;23;20251;-85
2024/01/23 21:14:12;;;;;;;11.93;5.45;;;4.80;1.00;;;;;;6170926;23;20181;-84
2024/01/23 21:16:44;;;;;;;10.68;3.80;;;4.80;1.00;;;;;;6168095;23;20239;-84
2024/01/23 21:19:12;;;;;;;17.98;6.28;;;4.80;1.00;;;;;;6168742;23;20165;-85
2024/01/23 21:21:39;;;;;;;13.82;5.40;;;4.80;1.00;;;;;;6169812;23;20183;-84
2024/01/23 21:24:07;;;;;;;18.25;6.53;;;4.90;1.00;;;;;;6171474;23;20214;-84
2024/01/23 21:26:34;;;;;;;10.18;5.10;;;4.90;1.00;;;;;;6168276;23;20208;-85
2024/01/23 21:29:01;;;;;;;7.78;4.32;;;4.90;1.00;;;;;;6163642;23;20180;-85
2024/01/23 21:31:28;;;;;;;10.85;4.55;;;4.90;1.00;;;;;;6163424;23;20184;-85
2024/01/23 21:33:55;;;;;;;7.97;3.45;;;5.00;1.00;;;;;;6169996;23;20191;-85
2024/01/23 21:36:24;;;;;;;9.63;3.90;;;4.90;1.00;;;;;;6176697;23;20201;-85
2024/01/23 21:38:51;;;;;;;17.75;4.30;;;5.00;1.00;;;;;;6172878;23;20256;-85
2024/01/23 21:41:19;;;;;;;14.73;4.43;;;5.00;1.00;;;;;;6165720;23;20230;-86
2024/01/23 21:43:45;;;;;;;9.80;4.50;;;5.00;1.00;;;;;;6169421;23;20495;-86
2024/01/23 21:46:13;;;;;;;17.50;3.92;;;5.10;99.90;;;;;;6177553;23;20231;-85
2024/01/23 21:48:40;;;;;;;7.72;3.90;;;5.10;99.90;;;;;;6175817;23;20204;-84
2024/01/23 21:51:07;;;;;;;9.93;5.05;;;5.10;99.90;;;;;;6176915;23;20180;-84
2024/01/23 21:53:35;;;;;;;8.93;4.30;;;5.10;99.90;;;;;;6181255;23;20220;-85
2024/01/23 21:56:03;;;;;;;16.83;4.28;;;5.10;99.90;;;;;;6180583;23;20200;-85
2024/01/23 21:58:30;;;;;;;10.77;4.80;;;5.00;99.90;;;;;;6180827;23;20200;-84
2024/01/23 22:00:58;;;;;;;13.70;3.63;;;5.20;99.90;;;;;;6173579;23;20180;-85
2024/01/23 22:03:25;;;;;;;6.00;3.70;;;5.20;99.90;;;;;;6175334;23;20168;-85
2024/01/23 22:05:53;;;;;;;11.32;4.70;;;5.20;99.90;;;;;;6177387;23;20180;-84
2024/01/23 22:08:20;;;;;;;8.43;3.58;;;5.20;99.90;;;;;;6182638;23;20184;-83
2024/01/23 22:10:48;;;;;;;10.82;4.00;;;5.20;99.90;;;;;;6177301;23;20177;-85
2024/01/23 22:13:15;;;;;;;8.23;3.35;;;5.20;99.90;;;;;;6178135;23;20180;-85
2024/01/23 22:15:42;;;;;;;18.23;5.43;;;5.20;99.90;;;;;;6166130;23;20220;-85
2024/01/23 22:18:08;;;;;;;12.90;3.95;;;5.20;99.90;;;;;;6165681;23;20266;-85
2024/01/23 22:20:36;;;;;;;17.85;3.35;;;5.30;99.90;;;;;;6168541;23;20208;-86
2024/01/23 22:23:03;;;;;;;8.45;3.70;;;5.30;99.90;;;;;;6172032;23;20180;-85
2024/01/23 22:25:30;;;;;;;11.63;4.22;;;5.30;99.90;;;;;;6172750;23;20208;-85
2024/01/23 22:27:58;;;;;;;11.15;3.92;;;5.40;99.90;;;;;;6177096;23;20168;-85
2024/01/23 22:30:25;;;;;;;11.48;4.43;;;5.40;99.90;;;;;;6175181;23;20181;-85
2024/01/23 22:32:52;;;;;;;11.80;3.45;;;5.40;99.90;;;;;;6176558;23;20177;-86
2024/01/23 22:35:19;;;;;;;9.35;3.88;;;5.40;99.90;;;;;;6173761;23;20279;-84
2024/01/23 22:37:48;;;;;;;10.02;3.72;;;5.40;99.90;;;;;;6174449;23;20211;-85
2024/01/23 22:40:15;;;;;;;7.80;3.70;;;5.40;99.90;;;;;;6174324;23;20177;-86
2024/01/23 22:42:42;;;;;;;10.00;3.80;;;5.30;1.00;;;;;;6178440;23;20235;-85
2024/01/23 22:45:11;;;;;;;10.32;3.33;;;5.20;1.00;;;;;;6182041;23;20175;-84
2024/01/23 22:47:38;;;;;;;9.55;3.20;;;5.20;99.90;;;;;;6176071;23;20204;-85
2024/01/23 22:50:05;;;;;;;17.90;4.82;;;5.20;1.00;;;;;;6168533;23;20259;-85
2024/01/23 22:52:32;;;;;;;22.08;7.38;;;5.10;99.90;;;;;;6169206;23;20180;-85
2024/01/23 22:54:59;;;;;;;12.13;5.57;;;5.10;1.00;;;;;;6168710;23;20180;-83
2024/01/23 22:57:26;;;;;;;8.02;4.68;;;5.10;99.90;;;;;;6166914;23;20216;-84
2024/01/23 22:59:52;;;;;;;8.88;4.50;;;5.10;99.90;;;;;;6170230;23;20188;-84
2024/01/23 23:02:20;;;;;;;11.38;4.85;;;5.10;1.00;;;;;;6170117;23;20251;-84
2024/01/23 23:04:47;;;;;;;11.63;3.90;;;5.10;1.00;;;;;;6168788;23;20212;-82
2024/01/23 23:07:14;;;;;;;11.85;4.25;;;5.10;99.90;;;;;;6167265;23;20248;-84
2024/01/23 23:09:41;;;;;;;14.85;3.90;;;5.00;99.90;;;;;;6167260;23;20180;-82
2024/01/23 23:12:09;;;;;;;7.75;3.22;;;5.00;99.90;;;;;;6164742;23;20184;-83
2024/01/23 23:14:37;;;;;;;9.90;3.90;;;5.00;1.00;;;;;;6166998;23;20180;-84